sensor_id;sensor_type;location;lat;lon;timestamp;pressure;altitude;pressure_sealevel;temperature;humidity
10668;BME280;5382;42.136;24.796;2023-07-13T00:00:18;99884.78;;;26.82;100.00
10668;BME280;5382;42.136;24.796;2023-07-13T00:02:44;99884.38;;;26.79;100.00
10668;BME280;5382;42.136;24.796;2023-07-13T00:05:11;99891.72;;;26.78;100.00
10668;BME280;5382;42.136;24.796;2023-07-13T00:07:38;99890.06;;;26.77;100.00
10668;BME280;5382;42.136;24.796;2023-07-13T00:10:07;99890.28;;;26.69;100.00
10668;BME280;5382;42.136;24.796;2023-07-13T00:12:36;99884.25;;;26.67;100.00
10668;BME280;5382;42.136;24.796;2023-07-13T00:15:06;99884.44;;;26.72;100.00
10668;BME280;5382;42.136;24.796;2023-07-13T00:17:33;99883.81;;;26.70;100.00
10668;BME280;5382;42.136;24.796;2023-07-13T00:20:00;99893.00;;;26.69;100.00
10668;BME280;5382;42.136;24.796;2023-07-13T00:22:27;99889.88;;;26.65;100.00
10668;BME280;5382;42.136;24.796;2023-07-13T00:24:54;99886.38;;;26.58;100.00
10668;BME280;5382;42.136;24.796;2023-07-13T00:27:23;99889.88;;;26.65;100.00
10668;BME280;5382;42.136;24.796;2023-07-13T00:29:52;99880.69;;;26.66;100.00
10668;BME280;5382;42.136;24.796;2023-07-13T00:32:19;99875.06;;;26.68;100.00
10668;BME280;5382;42.136;24.796;2023-07-13T00:34:46;99873.41;;;26.67;100.00
10668;BME280;5382;42.136;24.796;2023-07-13T00:37:13;99885.34;;;26.59;100.00
10668;BME280;5382;42.136;24.796;2023-07-13T00:39:39;99874.03;;;26.62;100.00
10668;BME280;5382;42.136;24.796;2023-07-13T00:42:06;99882.19;;;26.62;100.00
10668;BME280;5382;42.136;24.796;2023-07-13T00:44:34;99859.03;;;26.53;100.00
10668;BME280;5382;42.136;24.796;2023-07-13T00:47:01;99868.47;;;26.44;100.00
10668;BME280;5382;42.136;24.796;2023-07-13T00:49:30;99871.38;;;26.36;100.00
10668;BME280;5382;42.136;24.796;2023-07-13T00:52:00;99870.78;;;26.33;100.00
10668;BME280;5382;42.136;24.796;2023-07-13T00:54:41;99869.78;;;26.21;100.00
10668;BME280;5382;42.136;24.796;2023-07-13T00:57:11;99871.19;;;26.30;100.00
10668;BME280;5382;42.136;24.796;2023-07-13T00:59:43;99864.75;;;26.25;100.00
10668;BME280;5382;42.136;24.796;2023-07-13T01:02:12;99867.69;;;26.23;100.00
10668;BME280;5382;42.136;24.796;2023-07-13T01:04:39;99870.78;;;26.27;100.00
10668;BME280;5382;42.136;24.796;2023-07-13T01:07:10;99866.00;;;26.22;100.00
10668;BME280;5382;42.136;24.796;2023-07-13T01:09:38;99868.50;;;26.24;100.00
10668;BME280;5382;42.136;24.796;2023-07-13T01:12:05;99863.09;;;26.17;100.00
10668;BME280;5382;42.136;24.796;2023-07-13T01:14:32;99846.44;;;26.07;100.00
10668;BME280;5382;42.136;24.796;2023-07-13T01:17:00;99850.44;;;25.91;100.00
10668;BME280;5382;42.136;24.796;2023-07-13T01:19:38;99851.50;;;25.90;100.00
10668;BME280;5382;42.136;24.796;2023-07-13T01:22:09;99851.06;;;25.93;100.00
10668;BME280;5382;42.136;24.796;2023-07-13T01:24:37;99853.97;;;25.92;100.00
10668;BME280;5382;42.136;24.796;2023-07-13T01:27:05;99855.22;;;25.96;100.00
10668;BME280;5382;42.136;24.796;2023-07-13T01:29:35;99858.53;;;26.04;100.00
10668;BME280;5382;42.136;24.796;2023-07-13T01:32:08;99851.47;;;25.97;100.00
10668;BME280;5382;42.136;24.796;2023-07-13T01:34:35;99861.25;;;26.04;100.00
10668;BME280;5382;42.136;24.796;2023-07-13T01:37:02;99865.44;;;26.00;100.00
10668;BME280;5382;42.136;24.796;2023-07-13T01:39:31;99860.03;;;26.00;100.00
10668;BME280;5382;42.136;24.796;2023-07-13T01:41:58;99869.41;;;25.98;100.00
10668;BME280;5382;42.136;24.796;2023-07-13T01:44:25;99857.31;;;25.94;100.00
10668;BME280;5382;42.136;24.796;2023-07-13T01:46:52;99860.88;;;25.87;100.00
10668;BME280;5382;42.136;24.796;2023-07-13T01:49:19;99864.19;;;25.63;100.00
10668;BME280;5382;42.136;24.796;2023-07-13T01:51:45;99858.78;;;25.50;100.00
10668;BME280;5382;42.136;24.796;2023-07-13T01:54:12;99866.09;;;25.49;100.00
10668;BME280;5382;42.136;24.796;2023-07-13T01:56:40;99868.38;;;25.52;100.00
10668;BME280;5382;42.136;24.796;2023-07-13T01:59:07;99868.81;;;25.56;100.00
10668;BME280;5382;42.136;24.796;2023-07-13T02:01:34;99876.31;;;25.47;100.00
10668;BME280;5382;42.136;24.796;2023-07-13T02:04:01;99875.66;;;25.32;100.00
10668;BME280;5382;42.136;24.796;2023-07-13T02:06:28;99861.06;;;25.19;100.00
10668;BME280;5382;42.136;24.796;2023-07-13T02:08:54;99869.00;;;25.34;100.00
10668;BME280;5382;42.136;24.796;2023-07-13T02:11:21;99876.31;;;25.40;100.00
10668;BME280;5382;42.136;24.796;2023-07-13T02:13:50;99881.72;;;25.47;100.00
10668;BME280;5382;42.136;24.796;2023-07-13T02:16:17;99886.53;;;25.52;100.00
10668;BME280;5382;42.136;24.796;2023-07-13T02:18:44;99888.59;;;25.63;100.00
10668;BME280;5382;42.136;24.796;2023-07-13T02:21:10;99887.78;;;25.69;100.00
10668;BME280;5382;42.136;24.796;2023-07-13T02:23:37;99888.59;;;25.76;100.00
10668;BME280;5382;42.136;24.796;2023-07-13T02:26:04;99894.44;;;25.86;100.00
10668;BME280;5382;42.136;24.796;2023-07-13T02:28:31;99893.19;;;25.96;100.00
10668;BME280;5382;42.136;24.796;2023-07-13T02:31:06;99891.53;;;25.95;100.00
10668;BME280;5382;42.136;24.796;2023-07-13T02:33:33;99898.00;;;25.87;100.00
10668;BME280;5382;42.136;24.796;2023-07-13T02:35:59;99906.97;;;25.74;100.00
10668;BME280;5382;42.136;24.796;2023-07-13T02:38:26;99909.66;;;25.67;100.00
10668;BME280;5382;42.136;24.796;2023-07-13T02:40:53;99899.44;;;25.50;100.00
10668;BME280;5382;42.136;24.796;2023-07-13T02:43:20;99902.53;;;25.20;100.00
10668;BME280;5382;42.136;24.796;2023-07-13T02:45:47;99905.19;;;25.13;100.00
10668;BME280;5382;42.136;24.796;2023-07-13T02:48:15;99905.19;;;25.13;100.00
10668;BME280;5382;42.136;24.796;2023-07-13T02:50:42;99903.91;;;24.96;100.00
10668;BME280;5382;42.136;24.796;2023-07-13T02:53:09;99906.16;;;24.79;100.00
10668;BME280;5382;42.136;24.796;2023-07-13T02:55:35;99910.88;;;24.64;100.00
10668;BME280;5382;42.136;24.796;2023-07-13T02:58:02;99912.47;;;24.51;100.00
10668;BME280;5382;42.136;24.796;2023-07-13T03:00:29;99906.56;;;24.41;100.00
10668;BME280;5382;42.136;24.796;2023-07-13T03:02:56;99910.31;;;24.40;100.00
10668;BME280;5382;42.136;24.796;2023-07-13T03:05:24;99909.34;;;24.48;100.00
10668;BME280;5382;42.136;24.796;2023-07-13T03:07:51;99902.13;;;24.62;100.00
10668;BME280;5382;42.136;24.796;2023-07-13T03:10:18;99907.38;;;24.76;100.00
10668;BME280;5382;42.136;24.796;2023-07-13T03:12:45;99905.13;;;24.87;100.00
10668;BME280;5382;42.136;24.796;2023-07-13T03:15:12;99909.34;;;25.02;100.00
10668;BME280;5382;42.136;24.796;2023-07-13T03:17:38;99907.72;;;25.15;100.00
10668;BME280;5382;42.136;24.796;2023-07-13T03:20:07;99912.31;;;25.21;100.00
10668;BME280;5382;42.136;24.796;2023-07-13T03:22:36;99911.69;;;25.32;100.00
10668;BME280;5382;42.136;24.796;2023-07-13T03:25:03;99898.19;;;25.39;100.00
10668;BME280;5382;42.136;24.796;2023-07-13T03:27:30;99894.63;;;25.45;100.00
10668;BME280;5382;42.136;24.796;2023-07-13T03:29:56;99899.44;;;25.50;100.00
10668;BME280;5382;42.136;24.796;2023-07-13T03:32:23;99893.81;;;25.58;100.00
10668;BME280;5382;42.136;24.796;2023-07-13T03:34:50;99894.44;;;25.60;100.00
10668;BME280;5382;42.136;24.796;2023-07-13T03:40:09;99885.47;;;25.79;100.00
10668;BME280;5382;42.136;24.796;2023-07-13T03:42:37;99900.47;;;25.75;100.00
10668;BME280;5382;42.136;24.796;2023-07-13T03:45:04;99895.28;;;25.67;100.00
10668;BME280;5382;42.136;24.796;2023-07-13T03:47:31;99901.75;;;25.59;100.00
10668;BME280;5382;42.136;24.796;2023-07-13T03:49:58;99895.88;;;25.42;100.00
10668;BME280;5382;42.136;24.796;2023-07-13T03:52:24;99894.00;;;25.23;100.00
10668;BME280;5382;42.136;24.796;2023-07-13T03:54:51;99893.59;;;25.26;100.00
10668;BME280;5382;42.136;24.796;2023-07-13T03:57:19;99909.16;;;25.11;100.00
10668;BME280;5382;42.136;24.796;2023-07-13T03:59:46;99907.97;;;25.20;100.00
10668;BME280;5382;42.136;24.796;2023-07-13T04:02:13;99909.81;;;25.19;100.00
10668;BME280;5382;42.136;24.796;2023-07-13T04:04:39;99909.41;;;25.22;100.00
10668;BME280;5382;42.136;24.796;2023-07-13T04:07:06;99906.72;;;25.29;100.00
10668;BME280;5382;42.136;24.796;2023-07-13T04:09:33;99912.16;;;25.36;100.00
10668;BME280;5382;42.136;24.796;2023-07-13T04:12:00;99915.28;;;25.46;100.00
10668;BME280;5382;42.136;24.796;2023-07-13T04:14:28;99919.19;;;25.17;100.00
10668;BME280;5382;42.136;24.796;2023-07-13T04:16:55;99913.69;;;25.03;100.00
10668;BME280;5382;42.136;24.796;2023-07-13T04:19:23;99855.25;;;24.48;100.00
10668;BME280;5382;42.136;24.796;2023-07-13T04:21:50;99921.75;;;24.77;100.00
10668;BME280;5382;42.136;24.796;2023-07-13T04:24:16;99877.66;;;24.42;100.00
10668;BME280;5382;42.136;24.796;2023-07-13T04:26:43;99920.00;;;24.63;100.00
10668;BME280;5382;42.136;24.796;2023-07-13T04:29:10;99878.88;;;24.39;100.00
10668;BME280;5382;42.136;24.796;2023-07-13T04:31:38;99918.53;;;24.60;100.00
10668;BME280;5382;42.136;24.796;2023-07-13T04:34:05;99918.81;;;24.72;100.00
10668;BME280;5382;42.136;24.796;2023-07-13T04:36:33;99932.97;;;24.74;100.00
10668;BME280;5382;42.136;24.796;2023-07-13T04:39:02;99888.03;;;24.38;100.00
10668;BME280;5382;42.136;24.796;2023-07-13T04:41:29;99923.81;;;24.68;100.00
10668;BME280;5382;42.136;24.796;2023-07-13T04:43:56;99926.38;;;24.90;100.00
10668;BME280;5382;42.136;24.796;2023-07-13T04:46:23;99934.94;;;25.00;100.00
10668;BME280;5382;42.136;24.796;2023-07-13T04:48:51;99938.09;;;25.10;100.00
10668;BME280;5382;42.136;24.796;2023-07-13T04:51:18;99917.06;;;25.12;100.00
10668;BME280;5382;42.136;24.796;2023-07-13T04:53:45;99923.97;;;25.15;100.00
10668;BME280;5382;42.136;24.796;2023-07-13T04:56:12;99941.94;;;25.42;100.00
10668;BME280;5382;42.136;24.796;2023-07-13T04:58:39;99861.44;;;24.96;100.00
10668;BME280;5382;42.136;24.796;2023-07-13T05:01:06;99913.22;;;25.61;100.00
10668;BME280;5382;42.136;24.796;2023-07-13T05:03:34;99917.38;;;25.64;100.00
10668;BME280;5382;42.136;24.796;2023-07-13T05:06:05;99942.19;;;25.74;100.00
10668;BME280;5382;42.136;24.796;2023-07-13T05:08:32;99899.84;;;25.46;100.00
10668;BME280;5382;42.136;24.796;2023-07-13T05:11:00;99872.56;;;25.41;100.00
10668;BME280;5382;42.136;24.796;2023-07-13T05:13:27;99959.13;;;25.89;100.00
10668;BME280;5382;42.136;24.796;2023-07-13T05:15:58;99906.53;;;25.51;100.00
10668;BME280;5382;42.136;24.796;2023-07-13T05:18:25;99874.22;;;25.36;100.00
10668;BME280;5382;42.136;24.796;2023-07-13T05:20:59;99940.13;;;25.96;100.00
10668;BME280;5382;42.136;24.796;2023-07-13T05:23:29;99866.09;;;25.49;100.00
10668;BME280;5382;42.136;24.796;2023-07-13T05:25:57;99885.47;;;25.66;100.00
10668;BME280;5382;42.136;24.796;2023-07-13T05:28:25;99953.63;;;26.23;100.00
10668;BME280;5382;42.136;24.796;2023-07-13T05:30:52;99947.59;;;26.34;100.00
10668;BME280;5382;42.136;24.796;2023-07-13T05:33:20;99943.19;;;26.40;100.00
10668;BME280;5382;42.136;24.796;2023-07-13T05:35:47;99940.44;;;26.53;100.00
10668;BME280;5382;42.136;24.796;2023-07-13T05:38:14;99898.94;;;26.32;100.00
10668;BME280;5382;42.136;24.796;2023-07-13T05:40:44;99906.00;;;26.47;100.00
10668;BME280;5382;42.136;24.796;2023-07-13T05:43:11;99950.13;;;26.87;100.00
10668;BME280;5382;42.136;24.796;2023-07-13T05:45:38;99813.91;;;26.07;100.00
10668;BME280;5382;42.136;24.796;2023-07-13T05:48:06;99941.72;;;27.02;100.00
10668;BME280;5382;42.136;24.796;2023-07-13T05:50:33;99942.69;;;27.14;100.00
10668;BME280;5382;42.136;24.796;2023-07-13T05:52:59;99894.59;;;26.83;100.00
10668;BME280;5382;42.136;24.796;2023-07-13T05:55:26;99909.13;;;27.02;100.00
10668;BME280;5382;42.136;24.796;2023-07-13T05:57:54;99895.25;;;27.17;100.00
10668;BME280;5382;42.136;24.796;2023-07-13T06:00:23;99890.00;;;27.15;100.00
10668;BME280;5382;42.136;24.796;2023-07-13T06:02:51;99937.91;;;27.48;100.00
10668;BME280;5382;42.136;24.796;2023-07-13T06:05:18;99953.28;;;27.61;100.00
10668;BME280;5382;42.136;24.796;2023-07-13T06:07:45;99955.97;;;27.68;100.00
10668;BME280;5382;42.136;24.796;2023-07-13T06:10:12;99939.38;;;27.76;100.00
10668;BME280;5382;42.136;24.796;2023-07-13T06:12:39;99944.38;;;27.79;100.00
10668;BME280;5382;42.136;24.796;2023-07-13T06:15:08;99908.50;;;27.38;100.00
10668;BME280;5382;42.136;24.796;2023-07-13T06:17:37;99947.16;;;27.97;100.00
10668;BME280;5382;42.136;24.796;2023-07-13T06:20:07;99956.09;;;28.04;100.00
10668;BME280;5382;42.136;24.796;2023-07-13T06:22:36;99934.88;;;28.13;100.00
10668;BME280;5382;42.136;24.796;2023-07-13T06:25:04;99868.41;;;27.84;100.00
10668;BME280;5382;42.136;24.796;2023-07-13T06:27:31;99934.56;;;28.46;100.00
10668;BME280;5382;42.136;24.796;2023-07-13T06:29:57;99940.91;;;28.59;100.00
10668;BME280;5382;42.136;24.796;2023-07-13T06:32:26;99922.38;;;28.49;100.00
10668;BME280;5382;42.136;24.796;2023-07-13T06:34:53;99898.06;;;28.29;100.00
10668;BME280;5382;42.136;24.796;2023-07-13T06:37:20;99940.88;;;28.77;100.00
10668;BME280;5382;42.136;24.796;2023-07-13T06:39:47;99821.28;;;28.09;100.00
10668;BME280;5382;42.136;24.796;2023-07-13T06:42:15;99936.09;;;28.91;100.00
10668;BME280;5382;42.136;24.796;2023-07-13T06:44:43;99881.31;;;28.51;100.00
10668;BME280;5382;42.136;24.796;2023-07-13T06:47:09;99910.00;;;28.83;100.00
10668;BME280;5382;42.136;24.796;2023-07-13T06:49:38;99926.50;;;29.07;100.00
10668;BME280;5382;42.136;24.796;2023-07-13T06:52:05;99911.63;;;29.03;100.00
10668;BME280;5382;42.136;24.796;2023-07-13T06:54:32;99927.03;;;29.27;100.00
10668;BME280;5382;42.136;24.796;2023-07-13T06:57:00;99866.94;;;28.92;100.00
10668;BME280;5382;42.136;24.796;2023-07-13T06:59:27;99937.38;;;29.37;100.00
10668;BME280;5382;42.136;24.796;2023-07-13T07:01:54;99925.44;;;29.50;100.00
10668;BME280;5382;42.136;24.796;2023-07-13T07:07:49;99926.31;;;29.74;100.00
10668;BME280;5382;42.136;24.796;2023-07-13T07:10:18;99852.63;;;29.39;95.72
10668;BME280;5382;42.136;24.796;2023-07-13T07:12:45;99927.53;;;29.90;94.77
10668;BME280;5382;42.136;24.796;2023-07-13T07:15:12;99887.19;;;29.68;94.20
10668;BME280;5382;42.136;24.796;2023-07-13T07:17:39;99888.50;;;29.66;94.66
10668;BME280;5382;42.136;24.796;2023-07-13T07:20:09;99925.28;;;30.10;91.43
10668;BME280;5382;42.136;24.796;2023-07-13T07:22:36;99874.72;;;29.84;94.54
10668;BME280;5382;42.136;24.796;2023-07-13T07:25:05;99890.41;;;29.89;93.45
10668;BME280;5382;42.136;24.796;2023-07-13T07:27:32;99929.44;;;30.25;94.21
10668;BME280;5382;42.136;24.796;2023-07-13T07:29:59;99761.34;;;29.29;92.90
10668;BME280;5382;42.136;24.796;2023-07-13T07:32:29;99837.50;;;29.90;90.76
10668;BME280;5382;42.136;24.796;2023-07-13T07:34:57;99723.09;;;29.36;89.95
10668;BME280;5382;42.136;24.796;2023-07-13T07:37:24;99896.03;;;30.46;84.74
10668;BME280;5382;42.136;24.796;2023-07-13T07:48:12;99907.59;;;30.77;79.35
10668;BME280;5382;42.136;24.796;2023-07-13T07:50:39;99908.44;;;30.77;81.95
10668;BME280;5382;42.136;24.796;2023-07-13T07:53:06;99909.84;;;30.92;84.49
10668;BME280;5382;42.136;24.796;2023-07-13T07:55:35;99906.38;;;30.96;85.39
10668;BME280;5382;42.136;24.796;2023-07-13T07:58:02;99870.38;;;30.88;81.76
10668;BME280;5382;42.136;24.796;2023-07-13T08:00:29;99907.91;;;31.21;83.27
10668;BME280;5382;42.136;24.796;2023-07-13T08:02:57;99886.38;;;31.24;79.98
10668;BME280;5382;42.136;24.796;2023-07-13T08:05:25;99884.41;;;31.37;82.27
10668;BME280;5382;42.136;24.796;2023-07-13T08:07:52;99904.91;;;31.51;78.31
10668;BME280;5382;42.136;24.796;2023-07-13T08:10:19;99893.22;;;31.56;78.07
10668;BME280;5382;42.136;24.796;2023-07-13T08:12:46;99893.53;;;31.59;76.06
10668;BME280;5382;42.136;24.796;2023-07-13T08:15:15;99888.91;;;31.77;73.07
10668;BME280;5382;42.136;24.796;2023-07-13T08:17:42;99878.63;;;31.84;71.39
10668;BME280;5382;42.136;24.796;2023-07-13T08:20:09;99884.06;;;32.01;71.70
10668;BME280;5382;42.136;24.796;2023-07-13T08:22:38;99880.41;;;32.12;73.25
10668;BME280;5382;42.136;24.796;2023-07-13T08:25:05;99875.56;;;32.19;71.82
10668;BME280;5382;42.136;24.796;2023-07-13T08:27:33;99839.75;;;32.04;68.92
10668;BME280;5382;42.136;24.796;2023-07-13T08:29:59;99886.41;;;32.31;66.83
10668;BME280;5382;42.136;24.796;2023-07-13T08:32:26;99879.00;;;32.48;63.38
10668;BME280;5382;42.136;24.796;2023-07-13T08:34:53;99879.19;;;32.64;62.74
10668;BME280;5382;42.136;24.796;2023-07-13T08:37:20;99883.50;;;32.82;63.02
10668;BME280;5382;42.136;24.796;2023-07-13T08:39:48;99886.88;;;32.94;64.84
10668;BME280;5382;42.136;24.796;2023-07-13T08:42:26;99879.66;;;33.05;63.21
10668;BME280;5382;42.136;24.796;2023-07-13T08:44:59;99874.22;;;33.10;61.27
10668;BME280;5382;42.136;24.796;2023-07-13T08:47:33;99858.63;;;33.15;60.43
10668;BME280;5382;42.136;24.796;2023-07-13T08:50:03;99870.84;;;33.35;58.16
10668;BME280;5382;42.136;24.796;2023-07-13T08:52:33;99855.06;;;33.47;59.20
10668;BME280;5382;42.136;24.796;2023-07-13T08:55:09;99856.38;;;33.72;58.46
10668;BME280;5382;42.136;24.796;2023-07-13T08:57:41;99855.25;;;33.73;58.73
10668;BME280;5382;42.136;24.796;2023-07-13T09:00:10;99846.78;;;33.74;56.56
10668;BME280;5382;42.136;24.796;2023-07-13T09:02:42;99859.16;;;33.82;55.52
10668;BME280;5382;42.136;24.796;2023-07-13T09:05:14;99866.13;;;34.00;55.83
10668;BME280;5382;42.136;24.796;2023-07-13T09:08:01;99855.59;;;34.24;55.80
10668;BME280;5382;42.136;24.796;2023-07-13T09:10:40;99846.28;;;34.35;54.44
10668;BME280;5382;42.136;24.796;2023-07-13T09:13:18;99853.22;;;34.53;54.85
10668;BME280;5382;42.136;24.796;2023-07-13T09:15:48;99841.47;;;34.68;54.18
10668;BME280;5382;42.136;24.796;2023-07-13T09:18:21;99840.69;;;34.93;54.57
10668;BME280;5382;42.136;24.796;2023-07-13T09:20:53;99833.81;;;35.06;57.35
10668;BME280;5382;42.136;24.796;2023-07-13T09:23:23;99835.50;;;35.12;60.04
10668;BME280;5382;42.136;24.796;2023-07-13T09:25:53;99831.66;;;35.23;60.52
10668;BME280;5382;42.136;24.796;2023-07-13T09:28:24;99830.56;;;35.39;60.12
10668;BME280;5382;42.136;24.796;2023-07-13T09:31:00;99822.56;;;35.58;61.86
10668;BME280;5382;42.136;24.796;2023-07-13T09:33:29;99821.72;;;35.73;59.49
10668;BME280;5382;42.136;24.796;2023-07-13T09:35:56;99809.03;;;35.82;57.34
10668;BME280;5382;42.136;24.796;2023-07-13T09:38:27;99808.25;;;35.51;52.08
10668;BME280;5382;42.136;24.796;2023-07-13T09:41:17;99800.78;;;35.77;53.04
10668;BME280;5382;42.136;24.796;2023-07-13T09:44:02;99803.19;;;35.99;51.42
10668;BME280;5382;42.136;24.796;2023-07-13T09:46:34;99789.03;;;36.27;52.92
10668;BME280;5382;42.136;24.796;2023-07-13T09:49:01;99785.63;;;36.45;52.76
10668;BME280;5382;42.136;24.796;2023-07-13T09:51:28;99777.88;;;36.57;52.69
10668;BME280;5382;42.136;24.796;2023-07-13T09:53:54;99775.59;;;36.70;51.86
10668;BME280;5382;42.136;24.796;2023-07-13T09:56:27;99778.84;;;36.77;54.22
10668;BME280;5382;42.136;24.796;2023-07-13T09:58:54;99780.41;;;36.88;51.91
10668;BME280;5382;42.136;24.796;2023-07-13T10:01:34;99774.22;;;37.01;54.20
10668;BME280;5382;42.136;24.796;2023-07-13T10:04:02;99733.56;;;36.83;51.93
10668;BME280;5382;42.136;24.796;2023-07-13T10:06:38;99755.63;;;37.17;51.93
10668;BME280;5382;42.136;24.796;2023-07-13T10:09:08;99759.47;;;37.21;49.88
10668;BME280;5382;42.136;24.796;2023-07-13T10:11:37;99752.00;;;37.22;49.97
10668;BME280;5382;42.136;24.796;2023-07-13T10:14:10;99751.84;;;37.37;49.13
10668;BME280;5382;42.136;24.796;2023-07-13T10:16:38;99700.22;;;37.14;50.70
10668;BME280;5382;42.136;24.796;2023-07-13T10:19:12;99731.75;;;37.61;51.14
10668;BME280;5382;42.136;24.796;2023-07-13T10:21:50;99737.94;;;37.71;46.49
10668;BME280;5382;42.136;24.796;2023-07-13T10:24:22;99737.88;;;37.76;46.88
10668;BME280;5382;42.136;24.796;2023-07-13T10:26:54;99743.84;;;37.65;46.10
10668;BME280;5382;42.136;24.796;2023-07-13T10:29:25;99745.72;;;37.69;44.38
10668;BME280;5382;42.136;24.796;2023-07-13T10:31:54;99734.38;;;37.71;46.22
10668;BME280;5382;42.136;24.796;2023-07-13T10:34:22;99731.50;;;37.81;45.78
10668;BME280;5382;42.136;24.796;2023-07-13T10:36:51;99734.16;;;38.10;44.88
10668;BME280;5382;42.136;24.796;2023-07-13T10:39:20;99717.09;;;38.27;44.63
10668;BME280;5382;42.136;24.796;2023-07-13T10:41:52;99720.34;;;38.67;44.00
10668;BME280;5382;42.136;24.796;2023-07-13T10:44:22;99710.84;;;39.06;42.65
10668;BME280;5382;42.136;24.796;2023-07-13T10:46:53;99711.75;;;39.48;42.49
10668;BME280;5382;42.136;24.796;2023-07-13T10:49:22;99706.00;;;39.86;41.91
10668;BME280;5382;42.136;24.796;2023-07-13T10:51:49;99709.59;;;40.37;41.41
10668;BME280;5382;42.136;24.796;2023-07-13T10:54:19;99705.91;;;40.86;38.40
10668;BME280;5382;42.136;24.796;2023-07-13T10:56:52;99705.84;;;41.00;38.41
10668;BME280;5382;42.136;24.796;2023-07-13T10:59:25;99708.91;;;40.98;37.62
10668;BME280;5382;42.136;24.796;2023-07-13T11:01:56;99702.09;;;41.36;37.58
10668;BME280;5382;42.136;24.796;2023-07-13T11:04:25;99690.69;;;41.95;37.56
10668;BME280;5382;42.136;24.796;2023-07-13T11:06:57;99678.13;;;42.15;35.76
10668;BME280;5382;42.136;24.796;2023-07-13T11:09:34;99663.34;;;41.79;32.16
10668;BME280;5382;42.136;24.796;2023-07-13T11:12:08;99650.41;;;41.66;30.74
10668;BME280;5382;42.136;24.796;2023-07-13T11:15:03;99687.75;;;42.52;31.27
10668;BME280;5382;42.136;24.796;2023-07-13T11:17:38;99677.03;;;43.06;34.10
10668;BME280;5382;42.136;24.796;2023-07-13T11:20:39;99681.16;;;43.00;34.09
10668;BME280;5382;42.136;24.796;2023-07-13T11:25:50;99675.53;;;43.18;34.58
10668;BME280;5382;42.136;24.796;2023-07-13T11:28:23;99679.16;;;43.09;34.58
10668;BME280;5382;42.136;24.796;2023-07-13T11:31:01;99672.16;;;43.42;34.98
10668;BME280;5382;42.136;24.796;2023-07-13T11:33:49;99653.75;;;43.79;34.44
10668;BME280;5382;42.136;24.796;2023-07-13T11:36:18;99663.25;;;44.08;33.69
10668;BME280;5382;42.136;24.796;2023-07-13T11:38:57;99662.66;;;44.14;33.86
10668;BME280;5382;42.136;24.796;2023-07-13T11:41:28;99664.97;;;43.91;32.79
10668;BME280;5382;42.136;24.796;2023-07-13T11:44:10;99665.94;;;44.37;33.11
10668;BME280;5382;42.136;24.796;2023-07-13T11:46:37;99645.16;;;44.47;31.88
10668;BME280;5382;42.136;24.796;2023-07-13T11:49:05;99663.94;;;44.71;29.76
10668;BME280;5382;42.136;24.796;2023-07-13T11:51:34;99668.03;;;45.19;29.61
10668;BME280;5382;42.136;24.796;2023-07-13T11:54:05;99660.72;;;45.27;30.51
10668;BME280;5382;42.136;24.796;2023-07-13T11:56:33;99656.22;;;44.89;30.11
10668;BME280;5382;42.136;24.796;2023-07-13T11:59:07;99654.06;;;44.61;30.44
10668;BME280;5382;42.136;24.796;2023-07-13T12:01:43;99643.81;;;44.66;30.70
10668;BME280;5382;42.136;24.796;2023-07-13T12:04:20;99639.88;;;44.67;30.47
10668;BME280;5382;42.136;24.796;2023-07-13T12:06:55;99617.56;;;44.33;29.88
10668;BME280;5382;42.136;24.796;2023-07-13T12:09:27;99616.06;;;44.81;30.44
10668;BME280;5382;42.136;24.796;2023-07-13T12:11:57;99622.25;;;44.87;30.02
10668;BME280;5382;42.136;24.796;2023-07-13T12:14:28;99620.88;;;45.05;30.79
10668;BME280;5382;42.136;24.796;2023-07-13T12:16:55;99618.75;;;45.15;30.14
10668;BME280;5382;42.136;24.796;2023-07-13T12:19:25;99632.78;;;44.69;30.55
10668;BME280;5382;42.136;24.796;2023-07-13T12:21:55;99604.81;;;44.45;30.95
10668;BME280;5382;42.136;24.796;2023-07-13T12:24:23;99598.25;;;44.61;30.01
10668;BME280;5382;42.136;24.796;2023-07-13T12:26:51;99585.31;;;44.24;30.37
10668;BME280;5382;42.136;24.796;2023-07-13T12:29:19;99622.06;;;44.59;29.96
10668;BME280;5382;42.136;24.796;2023-07-13T12:31:48;99596.31;;;44.87;29.48
10668;BME280;5382;42.136;24.796;2023-07-13T12:34:19;99584.19;;;45.44;29.00
10668;BME280;5382;42.136;24.796;2023-07-13T12:36:49;99591.88;;;46.00;29.13
10668;BME280;5382;42.136;24.796;2023-07-13T12:39:19;99597.53;;;46.16;27.80
10668;BME280;5382;42.136;24.796;2023-07-13T12:41:48;99592.13;;;45.95;27.24
10668;BME280;5382;42.136;24.796;2023-07-13T12:44:18;99536.81;;;45.88;27.45
10668;BME280;5382;42.136;24.796;2023-07-13T12:46:59;99581.00;;;46.10;26.46
10668;BME280;5382;42.136;24.796;2023-07-13T12:49:32;99585.44;;;46.11;26.80
10668;BME280;5382;42.136;24.796;2023-07-13T12:52:02;99577.03;;;46.55;26.82
10668;BME280;5382;42.136;24.796;2023-07-13T12:54:29;99579.47;;;46.41;25.83
10668;BME280;5382;42.136;24.796;2023-07-13T12:56:58;99578.38;;;46.62;25.31
10668;BME280;5382;42.136;24.796;2023-07-13T12:59:31;99545.25;;;46.64;26.08
10668;BME280;5382;42.136;24.796;2023-07-13T13:02:21;99565.91;;;45.99;25.47
10668;BME280;5382;42.136;24.796;2023-07-13T13:04:49;99559.41;;;46.39;25.12
10668;BME280;5382;42.136;24.796;2023-07-13T13:07:16;99563.66;;;46.49;25.20
10668;BME280;5382;42.136;24.796;2023-07-13T13:09:43;99563.06;;;46.11;24.40
10668;BME280;5382;42.136;24.796;2023-07-13T13:12:10;99563.63;;;45.77;25.59
10668;BME280;5382;42.136;24.796;2023-07-13T13:14:36;99550.63;;;46.25;25.48
10668;BME280;5382;42.136;24.796;2023-07-13T13:17:16;99557.72;;;46.50;25.72
10668;BME280;5382;42.136;24.796;2023-07-13T13:19:45;99521.13;;;46.59;24.42
10668;BME280;5382;42.136;24.796;2023-07-13T13:22:12;99550.50;;;46.97;24.04